createdAt,value
2023-01-26T00:00:40.322Z,8.67
2023-01-26T00:03:08.125Z,10.40
2023-01-26T00:05:38.142Z,7.47
2023-01-26T00:08:08.636Z,9.90
2023-01-26T00:10:40.974Z,8.63
2023-01-26T00:13:10.111Z,8.20
2023-01-26T00:15:38.851Z,7.10
2023-01-26T00:18:12.973Z,8.37
2023-01-26T00:20:42.951Z,6.33
2023-01-26T00:23:10.705Z,7.43
2023-01-26T00:25:47.068Z,9.50
2023-01-26T00:28:14.945Z,9.47
2023-01-26T00:30:42.820Z,8.17
2023-01-26T00:33:19.196Z,8.60
2023-01-26T00:36:05.462Z,10.17
2023-01-26T00:38:33.425Z,7.70
2023-01-26T00:41:07.433Z,7.60
2023-01-26T00:43:38.188Z,8.20
2023-01-26T00:46:12.188Z,6.70
2023-01-26T00:48:40.055Z,7.37
2023-01-26T00:51:07.810Z,7.70
2023-01-26T00:53:35.896Z,7.60
2023-01-26T00:56:05.327Z,8.07
2023-01-26T00:58:33.187Z,5.80
2023-01-26T01:01:01.152Z,7.57
2023-01-26T01:03:31.677Z,6.50
2023-01-26T01:06:02.469Z,7.50
2023-01-26T01:08:32.959Z,6.67
2023-01-26T01:11:10.496Z,8.13
2023-01-26T01:13:39.199Z,5.73
2023-01-26T01:16:10.569Z,6.53
2023-01-26T01:18:38.618Z,6.60
2023-01-26T01:21:13.039Z,6.27
2023-01-26T01:23:47.065Z,6.47
2023-01-26T01:26:19.606Z,5.90
2023-01-26T01:28:47.568Z,6.33
2023-01-26T01:31:17.103Z,7.13
2023-01-26T01:33:45.359Z,6.60
2023-01-26T01:36:15.112Z,6.40
2023-01-26T01:38:48.581Z,5.20
2023-01-26T01:41:20.845Z,6.60
2023-01-26T01:43:53.110Z,6.83
2023-01-26T01:46:29.694Z,6.60
2023-01-26T01:49:04.377Z,6.13
2023-01-26T01:51:35.227Z,6.83
2023-01-26T01:54:09.958Z,6.13
2023-01-26T01:56:40.424Z,6.87
2023-01-26T01:59:10.882Z,6.70
2023-01-26T02:01:43.651Z,7.60
2023-01-26T02:04:13.648Z,5.50
2023-01-26T02:06:53.445Z,6.77
2023-01-26T02:09:46.438Z,6.03
2023-01-26T02:12:16.158Z,6.83
2023-01-26T02:14:47.714Z,7.60
2023-01-26T02:17:20.127Z,6.27
2023-01-26T02:19:58.776Z,7.50
2023-01-26T02:22:35.921Z,6.33
2023-01-26T02:25:08.128Z,6.20
2023-01-26T02:27:37.582Z,6.83
2023-01-26T02:30:07.824Z,5.07
2023-01-26T02:32:35.833Z,6.97
2023-01-26T02:35:03.625Z,5.00
2023-01-26T02:37:31.557Z,6.87
2023-01-26T02:40:03.419Z,6.87
2023-01-26T02:42:38.928Z,6.03
2023-01-26T02:45:09.707Z,6.97
2023-01-26T02:47:37.582Z,6.30
2023-01-26T02:50:05.220Z,7.60
2023-01-26T02:52:33.068Z,6.43
2023-01-26T02:55:27.002Z,6.23
2023-01-26T02:57:59.357Z,7.83
2023-01-26T03:00:31.749Z,6.33
2023-01-26T03:03:01.128Z,7.27
2023-01-26T03:05:30.250Z,8.53
2023-01-26T03:07:58.348Z,5.87
2023-01-26T03:10:30.963Z,6.07
2023-01-26T03:12:58.983Z,6.23
2023-01-26T03:15:45.567Z,6.17
2023-01-26T03:18:30.699Z,7.30
2023-01-26T03:21:17.260Z,6.00
2023-01-26T03:24:02.749Z,5.20
2023-01-26T03:26:47.887Z,5.67
2023-01-26T03:29:26.697Z,6.47
2023-01-26T03:31:54.803Z,5.90
2023-01-26T03:34:29.599Z,5.23
2023-01-26T03:37:03.130Z,5.40
2023-01-26T03:39:48.394Z,6.17
2023-01-26T03:42:33.909Z,6.87
2023-01-26T03:45:18.981Z,7.27
2023-01-26T03:48:04.400Z,5.53
2023-01-26T03:50:51.542Z,6.60
2023-01-26T03:53:41.317Z,6.20
2023-01-26T03:56:22.155Z,4.70
2023-01-26T03:58:53.529Z,6.13
2023-01-26T04:01:27.571Z,5.83
2023-01-26T04:04:14.371Z,6.83
2023-01-26T04:07:03.202Z,6.00
2023-01-26T04:09:31.532Z,7.60
2023-01-26T04:12:00.513Z,7.83
2023-01-26T04:14:48.953Z,7.90
2023-01-26T04:17:36.533Z,7.80
2023-01-26T04:20:22.856Z,7.37
2023-01-26T04:22:52.108Z,8.60
2023-01-26T04:25:23.594Z,6.07
2023-01-26T04:27:52.309Z,7.50
2023-01-26T04:30:24.693Z,9.17
2023-01-26T04:32:54.288Z,8.43
2023-01-26T04:35:25.086Z,8.77
2023-01-26T04:37:54.279Z,8.17
2023-01-26T04:40:22.188Z,6.30
2023-01-26T04:42:50.579Z,7.63
2023-01-26T04:45:21.801Z,7.53
2023-01-26T04:47:52.575Z,9.53
2023-01-26T04:50:20.785Z,7.47
2023-01-26T04:52:48.724Z,8.47
2023-01-26T04:55:20.966Z,7.70
2023-01-26T04:57:51.709Z,8.60
2023-01-26T05:00:21.548Z,7.40
2023-01-26T05:02:52.074Z,8.67
2023-01-26T05:05:25.657Z,8.00
2023-01-26T05:07:53.490Z,8.07
2023-01-26T05:10:33.859Z,7.37
2023-01-26T05:13:06.813Z,8.23
2023-01-26T05:15:37.392Z,7.03
2023-01-26T05:18:07.506Z,6.87
2023-01-26T05:20:35.371Z,7.60
2023-01-26T05:23:09.446Z,8.30
2023-01-26T05:25:38.855Z,6.83
2023-01-26T05:28:12.304Z,6.80
2023-01-26T05:30:42.748Z,8.03
2023-01-26T05:33:13.293Z,6.17
2023-01-26T05:35:41.274Z,9.77
2023-01-26T05:38:12.095Z,7.80
2023-01-26T05:40:54.956Z,6.17
2023-01-26T05:43:25.764Z,6.77
2023-01-26T05:45:56.208Z,8.50
2023-01-26T05:48:24.006Z,7.77
2023-01-26T05:50:54.875Z,6.87
2023-01-26T05:53:24.037Z,8.13
2023-01-26T05:55:53.425Z,5.70
2023-01-26T05:58:22.369Z,6.40
2023-01-26T06:00:50.552Z,10.40
2023-01-26T06:03:22.308Z,7.37
2023-01-26T06:05:54.827Z,7.33
2023-01-26T06:08:22.764Z,6.60
2023-01-26T06:10:50.602Z,5.67
2023-01-26T06:13:19.977Z,5.67
2023-01-26T06:15:50.586Z,7.17
2023-01-26T06:18:20.965Z,6.20
2023-01-26T06:20:48.964Z,6.37
2023-01-26T06:23:19.742Z,9.90
2023-01-26T06:25:47.595Z,6.90
2023-01-26T06:28:15.369Z,6.33
2023-01-26T06:30:47.485Z,6.50
2023-01-26T06:33:15.348Z,7.63
2023-01-26T06:35:48.230Z,8.23
2023-01-26T06:38:16.497Z,8.00
2023-01-26T06:40:45.831Z,6.70
2023-01-26T06:43:13.869Z,8.10
2023-01-26T06:45:42.023Z,8.77
2023-01-26T06:48:13.904Z,6.53
2023-01-26T06:50:42.443Z,8.20
2023-01-26T06:53:28.439Z,8.83
2023-01-26T06:55:56.343Z,7.10
2023-01-26T06:58:24.419Z,7.00
2023-01-26T07:00:53.073Z,7.93
2023-01-26T07:03:22.517Z,7.53
2023-01-26T07:05:51.696Z,6.93
2023-01-26T07:08:22.161Z,7.00
2023-01-26T07:10:53.442Z,6.50
2023-01-26T07:13:21.397Z,6.53
2023-01-26T07:15:49.978Z,5.40
2023-01-26T07:18:22.041Z,7.90
2023-01-26T07:20:51.902Z,5.60
2023-01-26T07:23:20.030Z,6.30
2023-01-26T07:25:48.608Z,8.07
2023-01-26T07:28:39.241Z,6.50
2023-01-26T07:31:12.212Z,5.93
2023-01-26T07:33:40.387Z,6.13
2023-01-26T07:36:11.055Z,7.50
2023-01-26T07:38:44.281Z,7.13
2023-01-26T07:41:16.576Z,6.83
2023-01-26T07:43:47.436Z,7.60
2023-01-26T07:46:15.479Z,5.53
2023-01-26T07:48:43.599Z,5.63
2023-01-26T07:51:18.315Z,7.67
2023-01-26T07:53:49.943Z,5.60
2023-01-26T07:56:19.672Z,5.53
2023-01-26T07:58:55.777Z,5.47
2023-01-26T08:01:24.158Z,5.70
2023-01-26T08:03:59.111Z,6.37
2023-01-26T08:06:28.980Z,6.97
2023-01-26T08:09:00.422Z,6.73
2023-01-26T08:11:28.430Z,6.50
2023-01-26T08:13:57.367Z,6.30
2023-01-26T08:16:34.709Z,6.33
2023-01-26T08:19:03.293Z,6.23
2023-01-26T08:21:33.730Z,5.53
2023-01-26T08:24:03.727Z,4.77
2023-01-26T08:26:32.365Z,5.63
2023-01-26T08:29:01.967Z,6.27
2023-01-26T08:31:33.705Z,8.73
2023-01-26T08:34:01.840Z,5.43
2023-01-26T08:36:30.060Z,5.40
2023-01-26T08:38:59.306Z,6.63
2023-01-26T08:41:27.939Z,5.50
2023-01-26T08:43:59.313Z,5.83
2023-01-26T08:46:27.692Z,5.83
2023-01-26T08:48:55.784Z,6.47
2023-01-26T08:51:26.633Z,6.33
2023-01-26T08:53:54.892Z,6.67
2023-01-26T08:56:27.700Z,5.63
2023-01-26T08:58:58.816Z,5.67
2023-01-26T09:01:27.165Z,4.90
2023-01-26T09:03:56.582Z,5.43
2023-01-26T09:06:30.685Z,4.53
2023-01-26T09:09:01.760Z,6.27
2023-01-26T09:11:37.777Z,5.60
2023-01-26T09:14:07.377Z,5.60
2023-01-26T09:16:38.000Z,5.50
2023-01-26T09:19:06.387Z,6.20
2023-01-26T09:21:46.985Z,5.87
2023-01-26T09:24:20.343Z,5.70
2023-01-26T09:26:50.366Z,5.17
2023-01-26T09:29:20.450Z,6.10
2023-01-26T09:31:48.442Z,6.90
2023-01-26T09:34:18.837Z,6.80
2023-01-26T09:36:49.539Z,6.40
2023-01-26T09:39:18.330Z,5.10
2023-01-26T09:42:23.106Z,5.80
2023-01-26T09:45:00.648Z,7.40
2023-01-26T09:47:49.263Z,7.00
2023-01-26T09:50:20.869Z,4.80
2023-01-26T09:52:53.833Z,4.80
2023-01-26T09:55:24.876Z,6.57
2023-01-26T09:57:58.270Z,5.33
2023-01-26T10:00:30.310Z,5.60
2023-01-26T10:03:07.842Z,5.63
2023-01-26T10:05:41.966Z,5.50
2023-01-26T10:08:15.163Z,4.80
2023-01-26T10:10:46.188Z,6.53
2023-01-26T10:13:18.236Z,5.10
2023-01-26T10:15:50.633Z,6.30
2023-01-26T10:18:24.329Z,5.93
2023-01-26T10:20:54.647Z,8.07
2023-01-26T10:23:24.698Z,6.10
2023-01-26T10:25:56.289Z,5.67
2023-01-26T10:28:29.996Z,5.87
2023-01-26T10:30:59.083Z,5.53
2023-01-26T10:33:34.194Z,5.70
2023-01-26T10:36:06.212Z,5.20
2023-01-26T10:38:42.697Z,4.10
2023-01-26T10:41:24.769Z,6.30
2023-01-26T10:44:10.810Z,5.30
2023-01-26T10:46:41.223Z,6.40
2023-01-26T10:49:16.975Z,6.60
2023-01-26T10:51:46.502Z,5.07
2023-01-26T10:54:16.991Z,5.20
2023-01-26T10:56:46.492Z,6.30
2023-01-26T10:59:22.733Z,6.33
2023-01-26T11:01:58.043Z,7.67
2023-01-26T11:04:26.855Z,7.63
2023-01-26T11:06:58.246Z,6.37
2023-01-26T11:09:29.869Z,7.03
2023-01-26T11:12:02.927Z,6.90
2023-01-26T11:14:36.928Z,6.80
2023-01-26T11:17:17.656Z,7.47
2023-01-26T11:20:13.832Z,7.10
2023-01-26T11:22:48.497Z,6.43
2023-01-26T11:25:34.803Z,6.87
2023-01-26T11:28:16.180Z,7.17
2023-01-26T11:30:57.676Z,7.10
2023-01-26T11:33:31.250Z,7.33
2023-01-26T11:36:04.390Z,6.27
2023-01-26T11:38:41.304Z,8.83
2023-01-26T11:41:33.616Z,8.07
2023-01-26T11:44:23.054Z,7.50
2023-01-26T11:47:05.778Z,7.43
2023-01-26T11:49:48.085Z,6.57
2023-01-26T11:52:24.468Z,7.00
2023-01-26T11:55:20.576Z,6.57
2023-01-26T11:58:00.950Z,5.50
2023-01-26T12:00:33.888Z,7.80
2023-01-26T12:03:06.479Z,6.20
2023-01-26T12:05:43.968Z,6.00
2023-01-26T12:08:21.597Z,6.50
2023-01-26T12:10:52.908Z,8.03
2023-01-26T12:13:36.008Z,5.67
2023-01-26T12:16:10.485Z,6.00
2023-01-26T12:18:55.869Z,7.33
2023-01-26T12:21:36.840Z,7.80
2023-01-26T12:24:11.033Z,7.27
2023-01-26T12:26:51.799Z,8.50
2023-01-26T12:29:26.443Z,8.00
2023-01-26T12:31:59.431Z,7.73
2023-01-26T12:34:33.286Z,6.37
2023-01-26T12:37:16.837Z,7.17
2023-01-26T12:39:46.719Z,7.43
2023-01-26T12:42:21.162Z,6.77
2023-01-26T12:44:55.012Z,8.37
2023-01-26T12:47:28.250Z,7.43
2023-01-26T12:50:01.099Z,6.07
2023-01-26T12:52:33.224Z,6.40
2023-01-26T12:55:05.005Z,7.47
2023-01-26T12:57:38.310Z,7.83
2023-01-26T13:00:10.303Z,6.40
2023-01-26T13:02:42.164Z,6.57
2023-01-26T13:05:27.897Z,6.67
2023-01-26T13:07:58.789Z,7.40
2023-01-26T13:10:29.866Z,8.27
2023-01-26T13:13:00.122Z,7.77
2023-01-26T13:15:34.145Z,9.07
2023-01-26T13:18:03.069Z,7.60
2023-01-26T13:20:53.393Z,7.10
2023-01-26T13:23:44.340Z,9.17
2023-01-26T13:26:18.110Z,7.80
2023-01-26T13:28:57.356Z,9.00
2023-01-26T13:31:34.835Z,8.20
2023-01-26T13:34:09.002Z,9.67
2023-01-26T13:36:41.889Z,8.07
2023-01-26T13:39:14.563Z,9.13
2023-01-26T13:42:00.299Z,7.43
2023-01-26T13:44:49.567Z,7.77
2023-01-26T13:47:21.374Z,8.13
2023-01-26T13:49:50.556Z,9.53
2023-01-26T13:52:21.873Z,8.00
2023-01-26T13:54:51.055Z,8.13
2023-01-26T13:57:22.892Z,10.53
2023-01-26T13:59:53.266Z,7.13
2023-01-26T14:02:26.000Z,8.27
2023-01-26T14:04:58.177Z,8.00
2023-01-26T14:07:30.039Z,8.00
2023-01-26T14:10:01.889Z,8.50
2023-01-26T14:12:38.722Z,8.50
2023-01-26T14:15:25.862Z,8.53
2023-01-26T14:18:00.342Z,8.53
2023-01-26T14:20:35.426Z,6.80
2023-01-26T14:23:13.704Z,7.37
2023-01-26T14:25:49.325Z,8.77
2023-01-26T14:28:31.301Z,8.50
2023-01-26T14:31:02.855Z,9.20
2023-01-26T14:33:34.474Z,8.20
2023-01-26T14:36:04.507Z,8.50
2023-01-26T14:38:43.812Z,8.07
2023-01-26T14:41:15.823Z,7.57
2023-01-26T14:43:46.938Z,9.20
2023-01-26T14:46:28.944Z,7.67
2023-01-26T14:49:01.265Z,9.23
2023-01-26T14:51:33.278Z,8.30
2023-01-26T14:54:05.789Z,7.97
2023-01-26T14:56:37.348Z,8.70
2023-01-26T14:59:06.449Z,9.20
2023-01-26T15:01:34.719Z,9.20
2023-01-26T15:04:14.418Z,8.03
2023-01-26T15:06:44.002Z,7.30
2023-01-26T15:09:24.617Z,7.80
2023-01-26T15:12:15.264Z,8.67
2023-01-26T15:14:51.617Z,9.50
2023-01-26T15:17:33.001Z,8.30
2023-01-26T15:20:03.500Z,7.87
2023-01-26T15:22:39.555Z,7.30
2023-01-26T15:25:19.317Z,7.80
2023-01-26T15:27:51.638Z,7.17
2023-01-26T15:30:21.955Z,6.10
2023-01-26T15:32:51.913Z,7.53
2023-01-26T15:35:23.746Z,6.10
2023-01-26T15:38:01.195Z,7.90
2023-01-26T15:40:32.807Z,6.63
2023-01-26T15:43:12.701Z,7.10
2023-01-26T15:45:42.184Z,6.40
2023-01-26T15:48:10.115Z,6.07
2023-01-26T15:50:40.864Z,8.50
2023-01-26T15:53:13.453Z,4.90
2023-01-26T15:55:44.586Z,6.13
2023-01-26T15:58:14.863Z,7.23
2023-01-26T16:00:48.644Z,5.30
2023-01-26T16:03:18.728Z,6.67
2023-01-26T16:05:48.056Z,4.70
2023-01-26T16:08:18.234Z,5.93
2023-01-26T16:10:50.146Z,6.00
2023-01-26T16:13:21.068Z,6.37
2023-01-26T16:15:53.399Z,6.30
2023-01-26T16:18:24.861Z,6.40
2023-01-26T16:20:54.399Z,7.93
2023-01-26T16:23:28.615Z,5.70
2023-01-26T16:26:00.667Z,6.13
2023-01-26T16:28:32.272Z,6.37
2023-01-26T16:31:02.534Z,5.40
2023-01-26T16:33:34.548Z,6.03
2023-01-26T16:36:04.573Z,6.93
2023-01-26T16:38:35.783Z,5.90
2023-01-26T16:41:05.564Z,6.77
2023-01-26T16:43:33.746Z,8.07
2023-01-26T16:46:04.079Z,5.03
2023-01-26T16:48:35.019Z,5.53
2023-01-26T16:51:13.779Z,5.87
2023-01-26T16:53:42.850Z,6.17
2023-01-26T16:56:15.008Z,6.53
2023-01-26T16:58:46.741Z,8.13
2023-01-26T17:01:21.385Z,8.57
2023-01-26T17:03:49.553Z,6.80
2023-01-26T17:06:20.194Z,7.40
2023-01-26T17:08:48.363Z,8.07
2023-01-26T17:11:19.351Z,6.57
2023-01-26T17:13:49.685Z,6.30
2023-01-26T17:16:28.616Z,7.23
2023-01-26T17:18:58.177Z,6.40
2023-01-26T17:21:27.541Z,8.10
2023-01-26T17:23:57.008Z,6.40
2023-01-26T17:26:28.658Z,7.10
2023-01-26T17:28:59.588Z,6.10
2023-01-26T17:31:28.636Z,8.00
2023-01-26T17:33:59.074Z,7.57
2023-01-26T17:36:31.587Z,8.80
2023-01-26T17:38:59.967Z,7.27
2023-01-26T17:41:30.362Z,7.73
2023-01-26T17:43:58.294Z,9.87
2023-01-26T17:46:32.224Z,8.10
2023-01-26T17:49:01.984Z,9.40
2023-01-26T17:51:33.988Z,9.33
2023-01-26T17:54:02.696Z,7.53
2023-01-26T17:56:33.307Z,7.27
2023-01-26T17:59:01.284Z,7.87
2023-01-26T18:01:29.344Z,7.33
2023-01-26T18:03:58.091Z,8.87
2023-01-26T18:06:25.901Z,9.53
2023-01-26T18:08:54.398Z,10.73
2023-01-26T18:11:24.095Z,8.60
2023-01-26T18:13:55.524Z,10.00
2023-01-26T18:16:24.498Z,8.90
2023-01-26T18:19:05.103Z,9.40
2023-01-26T18:21:35.011Z,12.43
2023-01-26T18:24:05.001Z,13.07
2023-01-26T18:26:35.355Z,10.90
2023-01-26T18:29:05.490Z,10.10
2023-01-26T18:31:40.815Z,10.83
2023-01-26T18:34:09.558Z,10.70
2023-01-26T18:36:40.542Z,12.33
2023-01-26T18:39:12.709Z,10.37
2023-01-26T18:41:43.273Z,10.43
2023-01-26T18:44:12.624Z,9.40
2023-01-26T18:46:45.824Z,8.93
2023-01-26T18:49:13.704Z,9.53
2023-01-26T18:51:47.828Z,9.43
2023-01-26T18:54:16.121Z,9.43
2023-01-26T18:56:45.047Z,10.00
2023-01-26T18:59:14.316Z,9.13
2023-01-26T19:01:43.707Z,10.17
2023-01-26T19:04:12.515Z,10.50
2023-01-26T19:06:40.389Z,10.13
2023-01-26T19:09:11.535Z,9.03
2023-01-26T19:11:43.806Z,10.23
2023-01-26T19:14:11.643Z,10.17
2023-01-26T19:16:44.648Z,9.37
2023-01-26T19:19:15.546Z,8.90
2023-01-26T19:21:43.458Z,9.70
2023-01-26T19:24:11.468Z,9.07
2023-01-26T19:26:43.263Z,11.70
2023-01-26T19:29:11.779Z,11.00
2023-01-26T19:31:42.438Z,10.53
2023-01-26T19:34:13.616Z,11.17
2023-01-26T19:36:41.733Z,11.30
2023-01-26T19:39:14.136Z,11.57
2023-01-26T19:41:46.621Z,11.83
2023-01-26T19:44:15.115Z,11.23
2023-01-26T19:46:44.679Z,9.83
2023-01-26T19:49:15.275Z,12.07
2023-01-26T19:51:43.096Z,9.17
2023-01-26T19:54:16.105Z,9.87
2023-01-26T19:56:46.277Z,9.07
2023-01-26T19:59:14.191Z,9.87
2023-01-26T20:01:47.671Z,9.33
2023-01-26T20:04:22.099Z,10.67
2023-01-26T20:06:51.028Z,11.63
2023-01-26T20:09:18.847Z,11.37
2023-01-26T20:11:49.886Z,11.03
2023-01-26T20:14:20.617Z,11.37
2023-01-26T20:16:48.644Z,9.73
2023-01-26T20:19:18.088Z,11.57
2023-01-26T20:21:48.316Z,11.10
2023-01-26T20:24:17.089Z,10.23
2023-01-26T20:26:45.475Z,9.90
2023-01-26T20:29:15.900Z,10.17
2023-01-26T20:31:44.500Z,9.27
2023-01-26T20:34:16.060Z,8.73
2023-01-26T20:36:46.196Z,7.37
2023-01-26T20:39:16.633Z,8.23
2023-01-26T20:41:44.610Z,14.80
2023-01-26T20:44:12.652Z,9.90
2023-01-26T20:46:45.217Z,10.50
2023-01-26T20:49:15.642Z,11.23
2023-01-26T20:51:45.982Z,10.57
2023-01-26T20:54:28.530Z,10.47
2023-01-26T20:57:01.972Z,11.27
2023-01-26T20:59:29.900Z,9.00
2023-01-26T21:01:58.000Z,9.87
2023-01-26T21:04:36.161Z,8.53
2023-01-26T21:07:08.074Z,10.60
2023-01-26T21:09:36.162Z,8.90
2023-01-26T21:12:04.322Z,8.60
2023-01-26T21:14:37.015Z,8.63
2023-01-26T21:17:05.423Z,10.33
2023-01-26T21:19:36.868Z,9.90
2023-01-26T21:22:09.090Z,8.53
2023-01-26T21:24:47.624Z,9.70
2023-01-26T21:27:15.521Z,10.27
2023-01-26T21:29:46.862Z,9.33
2023-01-26T21:32:19.464Z,8.83
2023-01-26T21:34:49.470Z,9.20
2023-01-26T21:37:18.672Z,8.60
2023-01-26T21:39:46.564Z,9.30
2023-01-26T21:42:17.119Z,6.77
2023-01-26T21:45:04.034Z,8.37
2023-01-26T21:47:32.008Z,9.90
2023-01-26T21:50:03.189Z,9.57
2023-01-26T21:52:50.100Z,7.40
2023-01-26T21:55:18.098Z,8.17
2023-01-26T21:58:20.605Z,10.40
2023-01-26T22:00:48.512Z,8.43
2023-01-26T22:03:16.337Z,7.83
2023-01-26T22:05:56.907Z,9.97
2023-01-26T22:08:33.830Z,9.17
2023-01-26T22:11:01.748Z,8.50
2023-01-26T22:13:32.634Z,7.83
2023-01-26T22:16:04.289Z,7.43
2023-01-26T22:18:32.484Z,10.07
2023-01-26T22:21:02.940Z,8.37
2023-01-26T22:23:38.924Z,9.67
2023-01-26T22:26:15.395Z,9.60
2023-01-26T22:28:44.431Z,9.60
2023-01-26T22:31:31.123Z,10.30
2023-01-26T22:34:05.305Z,8.77
2023-01-26T22:36:34.684Z,9.97
2023-01-26T22:39:06.400Z,11.13
2023-01-26T22:41:38.077Z,9.63
2023-01-26T22:44:06.389Z,8.90
2023-01-26T22:46:34.460Z,10.90
2023-01-26T22:49:05.322Z,10.90
2023-01-26T22:51:39.404Z,11.67
2023-01-26T22:54:13.613Z,11.03
2023-01-26T22:56:44.038Z,10.40
2023-01-26T22:59:12.203Z,9.90
2023-01-26T23:01:42.895Z,11.57
2023-01-26T23:04:16.678Z,8.87
2023-01-26T23:06:47.196Z,9.43
2023-01-26T23:09:18.380Z,10.37
2023-01-26T23:11:49.394Z,8.47
2023-01-26T23:14:17.263Z,10.10
2023-01-26T23:16:45.212Z,12.40
2023-01-26T23:19:13.192Z,10.83
2023-01-26T23:21:41.820Z,8.63
2023-01-26T23:24:10.085Z,10.83
2023-01-26T23:26:39.671Z,12.07
2023-01-26T23:29:08.255Z,11.17
2023-01-26T23:31:38.570Z,11.20
2023-01-26T23:34:10.236Z,11.07
2023-01-26T23:36:38.092Z,9.50
2023-01-26T23:39:06.329Z,8.47
2023-01-26T23:41:34.475Z,10.43
2023-01-26T23:44:03.712Z,11.37
2023-01-26T23:46:31.680Z,10.00
2023-01-26T23:49:02.619Z,10.20
2023-01-26T23:51:30.524Z,12.03
2023-01-26T23:53:58.487Z,11.03
2023-01-26T23:56:26.227Z,11.87
2023-01-26T23:58:54.148Z,12.10
